sensor_id;sensor_type;location;lat;lon;timestamp;pressure;altitude;pressure_sealevel;temperature;humidity
62557;BME280;48612;50.742;-1.226;2022-08-19T00:00:08;98112.75;;;18.91;100.00
62557;BME280;48612;50.742;-1.226;2022-08-19T00:03:43;98121.44;;;19.01;100.00
62557;BME280;48612;50.742;-1.226;2022-08-19T00:20:25;98120.75;;;19.04;100.00
62557;BME280;48612;50.742;-1.226;2022-08-19T00:37:27;98113.06;;;19.02;100.00
62557;BME280;48612;50.742;-1.226;2022-08-19T00:45:56;98119.41;;;19.10;100.00
62557;BME280;48612;50.742;-1.226;2022-08-19T01:16:52;98124.53;;;19.03;100.00
62557;BME280;48612;50.742;-1.226;2022-08-19T01:19:45;98122.78;;;18.94;100.00
62557;BME280;48612;50.742;-1.226;2022-08-19T01:27:25;98114.09;;;18.85;100.00
62557;BME280;48612;50.742;-1.226;2022-08-19T01:30:12;98135.13;;;18.99;100.00
62557;BME280;48612;50.742;-1.226;2022-08-19T01:42:24;98132.38;;;18.83;100.00
62557;BME280;48612;50.742;-1.226;2022-08-19T04:16:46;98283.69;;;18.63;100.00
62557;BME280;48612;50.742;-1.226;2022-08-19T07:13:23;98290.84;;;19.70;100.00
62557;BME280;48612;50.742;-1.226;2022-08-19T08:17:42;98448.94;;;18.40;100.00
62557;BME280;48612;50.742;-1.226;2022-08-19T08:20:29;98480.97;;;18.49;100.00
62557;BME280;48612;50.742;-1.226;2022-08-19T08:22:55;98477.56;;;18.40;100.00
62557;BME280;48612;50.742;-1.226;2022-08-19T08:26:24;98478.03;;;18.42;100.00
62557;BME280;48612;50.742;-1.226;2022-08-19T08:32:11;98515.06;;;18.22;100.00
62557;BME280;48612;50.742;-1.226;2022-08-19T10:10:42;98575.22;;;19.87;100.00
62557;BME280;48612;50.742;-1.226;2022-08-19T10:13:45;98621.16;;;19.77;100.00
62557;BME280;48612;50.742;-1.226;2022-08-19T10:16:20;98653.78;;;19.58;100.00
62557;BME280;48612;50.742;-1.226;2022-08-19T10:18:49;98663.69;;;19.37;100.00
62557;BME280;48612;50.742;-1.226;2022-08-19T10:21:27;98664.50;;;19.37;100.00
62557;BME280;48612;50.742;-1.226;2022-08-19T10:23:56;98688.88;;;19.57;100.00
62557;BME280;48612;50.742;-1.226;2022-08-19T10:26:26;98707.25;;;19.67;100.00
62557;BME280;48612;50.742;-1.226;2022-08-19T10:31:34;98759.13;;;19.54;100.00
62557;BME280;48612;50.742;-1.226;2022-08-19T10:34:06;98767.81;;;19.51;100.00
62557;BME280;48612;50.742;-1.226;2022-08-19T10:36:34;98787.44;;;19.63;100.00
62557;BME280;48612;50.742;-1.226;2022-08-19T10:39:04;98805.81;;;19.74;100.00
62557;BME280;48612;50.742;-1.226;2022-08-19T10:41:50;98804.63;;;20.04;100.00
62557;BME280;48612;50.742;-1.226;2022-08-19T10:44:53;98776.75;;;20.18;100.00
62557;BME280;48612;50.742;-1.226;2022-08-19T10:47:39;98780.28;;;20.43;100.00
62557;BME280;48612;50.742;-1.226;2022-08-19T10:50:05;98771.69;;;20.49;100.00
62557;BME280;48612;50.742;-1.226;2022-08-19T10:53:21;98792.44;;;20.73;100.00
62557;BME280;48612;50.742;-1.226;2022-08-19T10:55:50;98802.97;;;20.45;100.00
62557;BME280;48612;50.742;-1.226;2022-08-19T10:58:38;98828.22;;;20.23;100.00
62557;BME280;48612;50.742;-1.226;2022-08-19T11:01:03;98846.94;;;20.11;100.00
62557;BME280;48612;50.742;-1.226;2022-08-19T11:03:29;98894.66;;;20.18;100.00
62557;BME280;48612;50.742;-1.226;2022-08-19T11:06:08;98940.88;;;20.14;100.00
62557;BME280;48612;50.742;-1.226;2022-08-19T11:08:38;98923.66;;;20.36;100.00
62557;BME280;48612;50.742;-1.226;2022-08-19T11:11:10;98938.78;;;20.41;100.00
62557;BME280;48612;50.742;-1.226;2022-08-19T11:13:39;98928.63;;;20.47;100.00
62557;BME280;48612;50.742;-1.226;2022-08-19T11:16:14;98911.88;;;20.50;100.00
62557;BME280;48612;50.742;-1.226;2022-08-19T11:18:46;98886.25;;;20.61;100.00
62557;BME280;48612;50.742;-1.226;2022-08-19T11:21:13;98879.63;;;20.92;100.00
62557;BME280;48612;50.742;-1.226;2022-08-19T11:23:40;98876.75;;;21.09;100.00
62557;BME280;48612;50.742;-1.226;2022-08-19T11:26:06;98886.81;;;21.00;100.00
62557;BME280;48612;50.742;-1.226;2022-08-19T11:28:31;98872.06;;;21.18;100.00
62557;BME280;48612;50.742;-1.226;2022-08-19T11:30:57;98840.09;;;21.50;100.00
62557;BME280;48612;50.742;-1.226;2022-08-19T11:33:22;98821.91;;;21.84;100.00
62557;BME280;48612;50.742;-1.226;2022-08-19T11:35:48;98847.69;;;21.72;100.00
62557;BME280;48612;50.742;-1.226;2022-08-19T11:38:14;98904.75;;;21.57;100.00
62557;BME280;48612;50.742;-1.226;2022-08-19T11:40:40;98884.94;;;21.86;100.00
62557;BME280;48612;50.742;-1.226;2022-08-19T11:43:10;98886.97;;;22.30;100.00
62557;BME280;48612;50.742;-1.226;2022-08-19T11:45:44;98894.72;;;22.47;100.00
62557;BME280;48612;50.742;-1.226;2022-08-19T11:48:10;98906.13;;;22.56;100.00
62557;BME280;48612;50.742;-1.226;2022-08-19T11:50:35;98915.03;;;22.44;100.00
62557;BME280;48612;50.742;-1.226;2022-08-19T11:53:01;98898.88;;;22.72;100.00
62557;BME280;48612;50.742;-1.226;2022-08-19T11:55:26;98841.13;;;24.00;100.00
62557;BME280;48612;50.742;-1.226;2022-08-19T11:57:53;98783.50;;;26.95;100.00
62557;BME280;48612;50.742;-1.226;2022-08-19T12:00:21;98954.53;;;27.38;100.00
62557;BME280;48612;50.742;-1.226;2022-08-19T12:02:47;99147.44;;;26.08;100.00
62557;BME280;48612;50.742;-1.226;2022-08-19T12:05:12;99210.00;;;25.09;100.00
62557;BME280;48612;50.742;-1.226;2022-08-19T12:07:39;99216.84;;;25.22;100.00
62557;BME280;48612;50.742;-1.226;2022-08-19T12:10:06;99227.44;;;25.70;100.00
62557;BME280;48612;50.742;-1.226;2022-08-19T12:12:31;99259.59;;;25.36;100.00
62557;BME280;48612;50.742;-1.226;2022-08-19T12:14:58;99248.22;;;24.44;100.00
62557;BME280;48612;50.742;-1.226;2022-08-19T12:40:23;99386.34;;;22.87;100.00
62557;BME280;48612;50.742;-1.226;2022-08-19T12:42:52;99450.72;;;22.59;100.00
62557;BME280;48612;50.742;-1.226;2022-08-19T12:45:31;99450.41;;;22.60;100.00
62557;BME280;48612;50.742;-1.226;2022-08-19T12:48:56;99484.81;;;22.88;100.00
62557;BME280;48612;50.742;-1.226;2022-08-19T12:56:32;99476.38;;;21.85;100.00
62557;BME280;48612;50.742;-1.226;2022-08-19T13:02:08;99399.25;;;21.55;100.00
62557;BME280;48612;50.742;-1.226;2022-08-19T13:04:34;99455.81;;;21.59;100.00
62557;BME280;48612;50.742;-1.226;2022-08-19T13:07:07;99444.84;;;21.64;100.00
62557;BME280;48612;50.742;-1.226;2022-08-19T13:09:37;99375.75;;;21.73;100.00
62557;BME280;48612;50.742;-1.226;2022-08-19T13:12:05;99328.56;;;21.85;100.00
62557;BME280;48612;50.742;-1.226;2022-08-19T13:14:44;99349.94;;;22.02;100.00
62557;BME280;48612;50.742;-1.226;2022-08-19T13:17:17;99343.13;;;22.04;100.00
62557;BME280;48612;50.742;-1.226;2022-08-19T13:19:43;99322.81;;;21.95;100.00
62557;BME280;48612;50.742;-1.226;2022-08-19T13:22:12;99311.41;;;21.98;100.00
62557;BME280;48612;50.742;-1.226;2022-08-19T13:24:37;99313.56;;;22.04;100.00
62557;BME280;48612;50.742;-1.226;2022-08-19T13:27:04;99388.94;;;22.08;100.00
62557;BME280;48612;50.742;-1.226;2022-08-19T13:29:30;99531.28;;;22.04;100.00
62557;BME280;48612;50.742;-1.226;2022-08-19T13:32:14;99585.19;;;22.08;100.00
62557;BME280;48612;50.742;-1.226;2022-08-19T13:34:58;99646.84;;;22.04;100.00
62557;BME280;48612;50.742;-1.226;2022-08-19T13:37:24;99659.22;;;21.97;100.00
62557;BME280;48612;50.742;-1.226;2022-08-19T13:40:20;99755.97;;;21.88;100.00
62557;BME280;48612;50.742;-1.226;2022-08-19T13:42:50;99806.72;;;21.81;100.00
62557;BME280;48612;50.742;-1.226;2022-08-19T13:45:19;99813.53;;;21.78;100.00
62557;BME280;48612;50.742;-1.226;2022-08-19T13:47:47;99798.84;;;21.76;100.00
62557;BME280;48612;50.742;-1.226;2022-08-19T13:50:17;99802.94;;;21.73;100.00
62557;BME280;48612;50.742;-1.226;2022-08-19T13:52:43;99851.63;;;21.72;100.00
62557;BME280;48612;50.742;-1.226;2022-08-19T13:55:10;99844.81;;;21.74;100.00
62557;BME280;48612;50.742;-1.226;2022-08-19T13:57:36;99826.34;;;21.73;100.00
62557;BME280;48612;50.742;-1.226;2022-08-19T14:00:12;99832.66;;;21.77;100.00
62557;BME280;48612;50.742;-1.226;2022-08-19T14:02:40;99896.06;;;21.87;100.00
62557;BME280;48612;50.742;-1.226;2022-08-19T14:05:08;99909.31;;;21.92;100.00
62557;BME280;48612;50.742;-1.226;2022-08-19T14:07:34;99924.97;;;21.98;100.00
62557;BME280;48612;50.742;-1.226;2022-08-19T14:10:01;99925.47;;;22.09;100.00
62557;BME280;48612;50.742;-1.226;2022-08-19T14:12:28;99923.88;;;22.08;100.00
62557;BME280;48612;50.742;-1.226;2022-08-19T14:14:53;99949.97;;;21.90;100.00
62557;BME280;48612;50.742;-1.226;2022-08-19T14:17:21;99949.63;;;21.83;100.00
62557;BME280;48612;50.742;-1.226;2022-08-19T14:19:47;99942.53;;;21.78;100.00
62557;BME280;48612;50.742;-1.226;2022-08-19T14:22:14;99930.16;;;21.77;100.00
62557;BME280;48612;50.742;-1.226;2022-08-19T14:24:40;99958.94;;;21.77;100.00
62557;BME280;48612;50.742;-1.226;2022-08-19T14:27:06;99932.53;;;21.70;100.00
62557;BME280;48612;50.742;-1.226;2022-08-19T14:29:33;99920.03;;;21.74;100.00
62557;BME280;48612;50.742;-1.226;2022-08-19T14:31:59;99881.97;;;21.72;100.00
62557;BME280;48612;50.742;-1.226;2022-08-19T14:34:25;99852.72;;;21.71;100.00
62557;BME280;48612;50.742;-1.226;2022-08-19T14:36:52;99791.06;;;21.74;100.00
62557;BME280;48612;50.742;-1.226;2022-08-19T14:39:18;99760.41;;;21.93;100.00
62557;BME280;48612;50.742;-1.226;2022-08-19T14:41:44;99786.34;;;21.89;100.00
62557;BME280;48612;50.742;-1.226;2022-08-19T14:44:10;99781.75;;;21.89;100.00
62557;BME280;48612;50.742;-1.226;2022-08-19T14:46:56;99822.38;;;22.05;100.00
62557;BME280;48612;50.742;-1.226;2022-08-19T14:49:21;99841.47;;;22.56;100.00
62557;BME280;48612;50.742;-1.226;2022-08-19T14:51:47;99846.16;;;23.74;100.00
62557;BME280;48612;50.742;-1.226;2022-08-19T14:54:13;99863.03;;;23.32;100.00
62557;BME280;48612;50.742;-1.226;2022-08-19T14:56:39;99854.53;;;23.21;100.00
62557;BME280;48612;50.742;-1.226;2022-08-19T14:59:06;99835.69;;;23.21;100.00
62557;BME280;48612;50.742;-1.226;2022-08-19T15:01:32;99815.88;;;22.96;100.00
62557;BME280;48612;50.742;-1.226;2022-08-19T15:03:57;99787.09;;;22.80;100.00
62557;BME280;48612;50.742;-1.226;2022-08-19T15:06:24;99796.41;;;23.20;100.00
62557;BME280;48612;50.742;-1.226;2022-08-19T15:08:51;99841.75;;;24.90;100.00
62557;BME280;48612;50.742;-1.226;2022-08-19T15:11:18;99899.41;;;26.20;100.00
62557;BME280;48612;50.742;-1.226;2022-08-19T15:13:46;99854.03;;;24.42;100.00
62557;BME280;48612;50.742;-1.226;2022-08-19T15:16:12;99791.94;;;23.54;100.00
62557;BME280;48612;50.742;-1.226;2022-08-19T15:18:40;99742.03;;;23.06;100.00
62557;BME280;48612;50.742;-1.226;2022-08-19T15:21:09;99697.97;;;23.32;100.00
62557;BME280;48612;50.742;-1.226;2022-08-19T15:23:35;99716.41;;;23.42;100.00
62557;BME280;48612;50.742;-1.226;2022-08-19T15:26:01;99685.41;;;22.94;100.00
62557;BME280;48612;50.742;-1.226;2022-08-19T15:28:27;99659.16;;;23.99;100.00
62557;BME280;48612;50.742;-1.226;2022-08-19T15:30:53;99730.41;;;24.10;100.00
62557;BME280;48612;50.742;-1.226;2022-08-19T15:33:19;99712.72;;;23.46;100.00
62557;BME280;48612;50.742;-1.226;2022-08-19T15:35:46;99675.94;;;23.09;100.00
62557;BME280;48612;50.742;-1.226;2022-08-19T15:38:13;99662.03;;;23.28;100.00
62557;BME280;48612;50.742;-1.226;2022-08-19T15:40:41;99666.56;;;23.15;100.00
62557;BME280;48612;50.742;-1.226;2022-08-19T15:43:07;99656.41;;;23.00;100.00
62557;BME280;48612;50.742;-1.226;2022-08-19T15:45:33;99683.97;;;23.17;100.00
62557;BME280;48612;50.742;-1.226;2022-08-19T15:48:00;99689.47;;;23.00;100.00
62557;BME280;48612;50.742;-1.226;2022-08-19T15:50:25;99708.66;;;23.82;100.00
62557;BME280;48612;50.742;-1.226;2022-08-19T15:53:00;99734.00;;;23.60;100.00
62557;BME280;48612;50.742;-1.226;2022-08-19T15:55:29;99706.94;;;23.15;100.00
62557;BME280;48612;50.742;-1.226;2022-08-19T15:57:57;99707.56;;;22.91;100.00
62557;BME280;48612;50.742;-1.226;2022-08-19T16:00:42;99688.16;;;22.77;100.00
62557;BME280;48612;50.742;-1.226;2022-08-19T16:03:27;99705.31;;;22.72;100.00
62557;BME280;48612;50.742;-1.226;2022-08-19T16:06:11;99681.88;;;22.72;100.00
62557;BME280;48612;50.742;-1.226;2022-08-19T16:08:57;99635.31;;;22.51;100.00
62557;BME280;48612;50.742;-1.226;2022-08-19T16:11:29;99596.63;;;22.35;100.00
62557;BME280;48612;50.742;-1.226;2022-08-19T16:13:56;99552.03;;;22.34;100.00
62557;BME280;48612;50.742;-1.226;2022-08-19T16:16:25;99528.75;;;22.38;100.00
62557;BME280;48612;50.742;-1.226;2022-08-19T16:18:53;99566.31;;;22.97;100.00
62557;BME280;48612;50.742;-1.226;2022-08-19T16:21:21;99560.50;;;22.44;100.00
62557;BME280;48612;50.742;-1.226;2022-08-19T16:23:48;99539.50;;;22.38;100.00
62557;BME280;48612;50.742;-1.226;2022-08-19T16:26:16;99580.09;;;23.16;100.00
62557;BME280;48612;50.742;-1.226;2022-08-19T16:28:44;99712.44;;;26.41;100.00
62557;BME280;48612;50.742;-1.226;2022-08-19T16:31:12;99814.00;;;25.26;100.00
62557;BME280;48612;50.742;-1.226;2022-08-19T16:33:38;99744.22;;;25.16;100.00
62557;BME280;48612;50.742;-1.226;2022-08-19T16:36:04;99805.41;;;25.89;100.00
62557;BME280;48612;50.742;-1.226;2022-08-19T16:38:32;99766.75;;;24.37;100.00
62557;BME280;48612;50.742;-1.226;2022-08-19T16:40:59;99758.19;;;23.90;100.00
62557;BME280;48612;50.742;-1.226;2022-08-19T16:43:27;99728.84;;;23.13;100.00
62557;BME280;48612;50.742;-1.226;2022-08-19T16:45:53;99700.88;;;22.67;100.00
62557;BME280;48612;50.742;-1.226;2022-08-19T16:48:21;99693.59;;;22.38;100.00
62557;BME280;48612;50.742;-1.226;2022-08-19T16:50:48;99686.38;;;22.21;100.00
62557;BME280;48612;50.742;-1.226;2022-08-19T16:53:19;99648.13;;;22.07;100.00
62557;BME280;48612;50.742;-1.226;2022-08-19T16:55:47;99609.28;;;21.87;100.00
62557;BME280;48612;50.742;-1.226;2022-08-19T16:58:19;99556.53;;;21.83;100.00
62557;BME280;48612;50.742;-1.226;2022-08-19T17:00:45;99556.34;;;21.88;100.00
62557;BME280;48612;50.742;-1.226;2022-08-19T17:03:15;99535.31;;;21.90;100.00
62557;BME280;48612;50.742;-1.226;2022-08-19T17:05:50;99529.09;;;21.98;100.00
62557;BME280;48612;50.742;-1.226;2022-08-19T17:08:18;99507.81;;;21.84;100.00
62557;BME280;48612;50.742;-1.226;2022-08-19T17:10:45;99464.13;;;21.66;100.00
62557;BME280;48612;50.742;-1.226;2022-08-19T17:13:12;99439.69;;;21.59;100.00
62557;BME280;48612;50.742;-1.226;2022-08-19T17:15:43;99424.03;;;21.61;100.00
62557;BME280;48612;50.742;-1.226;2022-08-19T17:18:10;99377.00;;;21.55;100.00
62557;BME280;48612;50.742;-1.226;2022-08-19T17:20:39;99347.69;;;21.41;100.00
62557;BME280;48612;50.742;-1.226;2022-08-19T17:23:05;99311.59;;;21.21;100.00
62557;BME280;48612;50.742;-1.226;2022-08-19T17:25:31;99270.34;;;21.26;100.00
62557;BME280;48612;50.742;-1.226;2022-08-19T17:28:24;99241.91;;;21.33;100.00
62557;BME280;48612;50.742;-1.226;2022-08-19T17:30:52;99218.22;;;21.06;100.00
62557;BME280;48612;50.742;-1.226;2022-08-19T17:33:18;99189.91;;;20.88;100.00
62557;BME280;48612;50.742;-1.226;2022-08-19T17:35:45;99152.75;;;20.77;100.00
62557;BME280;48612;50.742;-1.226;2022-08-19T17:38:18;99134.47;;;20.71;100.00
62557;BME280;48612;50.742;-1.226;2022-08-19T17:40:49;99104.19;;;20.70;100.00
62557;BME280;48612;50.742;-1.226;2022-08-19T17:43:16;99086.97;;;20.71;100.00
62557;BME280;48612;50.742;-1.226;2022-08-19T17:45:43;99077.25;;;20.67;100.00
62557;BME280;48612;50.742;-1.226;2022-08-19T17:48:10;99080.66;;;20.55;100.00
62557;BME280;48612;50.742;-1.226;2022-08-19T17:50:37;99056.38;;;20.43;100.00
62557;BME280;48612;50.742;-1.226;2022-08-19T17:53:06;99043.50;;;20.36;100.00
62557;BME280;48612;50.742;-1.226;2022-08-19T17:55:32;99053.63;;;20.30;100.00
62557;BME280;48612;50.742;-1.226;2022-08-19T17:57:59;99050.22;;;20.21;100.00
62557;BME280;48612;50.742;-1.226;2022-08-19T18:00:25;99060.19;;;20.12;100.00
62557;BME280;48612;50.742;-1.226;2022-08-19T18:02:58;99051.56;;;20.06;100.00
62557;BME280;48612;50.742;-1.226;2022-08-19T18:05:32;99036.44;;;20.02;100.00
62557;BME280;48612;50.742;-1.226;2022-08-19T18:07:59;99019.56;;;20.01;100.00
62557;BME280;48612;50.742;-1.226;2022-08-19T18:10:28;99024.16;;;20.01;100.00
62557;BME280;48612;50.742;-1.226;2022-08-19T18:12:55;99039.75;;;19.99;100.00
62557;BME280;48612;50.742;-1.226;2022-08-19T18:15:44;99033.81;;;19.93;100.00
62557;BME280;48612;50.742;-1.226;2022-08-19T18:18:09;99030.50;;;19.87;100.00
62557;BME280;48612;50.742;-1.226;2022-08-19T18:20:39;99048.00;;;19.85;100.00
62557;BME280;48612;50.742;-1.226;2022-08-19T18:23:23;99037.00;;;19.78;100.00
62557;BME280;48612;50.742;-1.226;2022-08-19T18:25:49;99029.94;;;19.73;100.00
62557;BME280;48612;50.742;-1.226;2022-08-19T18:28:15;99026.34;;;19.69;100.00
62557;BME280;48612;50.742;-1.226;2022-08-19T18:30:41;99014.72;;;19.65;100.00
62557;BME280;48612;50.742;-1.226;2022-08-19T18:33:07;99018.78;;;19.62;100.00
62557;BME280;48612;50.742;-1.226;2022-08-19T18:35:44;99013.59;;;19.57;100.00
62557;BME280;48612;50.742;-1.226;2022-08-19T18:38:14;99012.22;;;19.51;100.00
62557;BME280;48612;50.742;-1.226;2022-08-19T18:41:00;99020.25;;;19.42;100.00
62557;BME280;48612;50.742;-1.226;2022-08-19T18:43:48;99025.94;;;19.32;100.00
62557;BME280;48612;50.742;-1.226;2022-08-19T18:46:34;99024.88;;;19.25;100.00
62557;BME280;48612;50.742;-1.226;2022-08-19T18:49:25;99025.34;;;19.18;100.00
62557;BME280;48612;50.742;-1.226;2022-08-19T18:51:53;99026.78;;;19.07;100.00
62557;BME280;48612;50.742;-1.226;2022-08-19T18:54:25;99038.91;;;19.04;100.00
62557;BME280;48612;50.742;-1.226;2022-08-19T18:56:55;99034.81;;;18.98;100.00
62557;BME280;48612;50.742;-1.226;2022-08-19T18:59:24;99054.78;;;18.92;100.00
62557;BME280;48612;50.742;-1.226;2022-08-19T19:01:54;99054.94;;;18.87;100.00
62557;BME280;48612;50.742;-1.226;2022-08-19T19:04:38;99049.28;;;18.80;100.00
62557;BME280;48612;50.742;-1.226;2022-08-19T19:07:07;99057.16;;;18.76;100.00
62557;BME280;48612;50.742;-1.226;2022-08-19T19:09:36;99060.25;;;18.69;100.00
62557;BME280;48612;50.742;-1.226;2022-08-19T19:12:09;99052.38;;;18.64;100.00
62557;BME280;48612;50.742;-1.226;2022-08-19T19:14:55;99046.41;;;18.59;100.00
62557;BME280;48612;50.742;-1.226;2022-08-19T19:17:25;99046.56;;;18.54;100.00
62557;BME280;48612;50.742;-1.226;2022-08-19T19:19:56;99050.47;;;18.47;100.00
62557;BME280;48612;50.742;-1.226;2022-08-19T19:22:24;99040.41;;;18.44;100.00
62557;BME280;48612;50.742;-1.226;2022-08-19T19:24:52;99036.31;;;18.38;100.00
62557;BME280;48612;50.742;-1.226;2022-08-19T19:27:23;99033.94;;;18.37;100.00
62557;BME280;48612;50.742;-1.226;2022-08-19T19:29:51;99040.72;;;18.34;100.00
62557;BME280;48612;50.742;-1.226;2022-08-19T19:32:23;99020.59;;;18.28;100.00
62557;BME280;48612;50.742;-1.226;2022-08-19T19:34:54;99021.66;;;18.27;100.00
62557;BME280;48612;50.742;-1.226;2022-08-19T19:37:21;99024.97;;;18.24;100.00
62557;BME280;48612;50.742;-1.226;2022-08-19T19:39:51;99020.56;;;18.19;100.00
62557;BME280;48612;50.742;-1.226;2022-08-19T19:42:26;99022.75;;;18.17;100.00
62557;BME280;48612;50.742;-1.226;2022-08-19T19:44:57;99036.25;;;18.12;100.00
62557;BME280;48612;50.742;-1.226;2022-08-19T19:47:27;99073.19;;;18.10;100.00
62557;BME280;48612;50.742;-1.226;2022-08-19T19:49:56;99135.41;;;18.11;100.00
62557;BME280;48612;50.742;-1.226;2022-08-19T19:52:22;99203.25;;;18.10;100.00
62557;BME280;48612;50.742;-1.226;2022-08-19T19:55:09;99298.31;;;18.11;100.00
62557;BME280;48612;50.742;-1.226;2022-08-19T19:57:40;99363.03;;;18.08;100.00
62557;BME280;48612;50.742;-1.226;2022-08-19T20:00:09;99409.53;;;18.07;100.00
62557;BME280;48612;50.742;-1.226;2022-08-19T20:02:39;99434.63;;;18.06;100.00
62557;BME280;48612;50.742;-1.226;2022-08-19T20:05:11;99460.06;;;18.03;100.00
62557;BME280;48612;50.742;-1.226;2022-08-19T20:07:38;99490.25;;;18.03;100.00
62557;BME280;48612;50.742;-1.226;2022-08-19T20:10:23;99517.06;;;17.98;100.00
62557;BME280;48612;50.742;-1.226;2022-08-19T20:12:49;99513.41;;;17.94;100.00
62557;BME280;48612;50.742;-1.226;2022-08-19T20:15:17;99513.41;;;17.94;100.00
62557;BME280;48612;50.742;-1.226;2022-08-19T20:17:43;99516.16;;;17.89;100.00
62557;BME280;48612;50.742;-1.226;2022-08-19T20:20:10;99507.16;;;17.85;100.00
62557;BME280;48612;50.742;-1.226;2022-08-19T20:22:40;99523.50;;;17.84;100.00
62557;BME280;48612;50.742;-1.226;2022-08-19T20:25:11;99529.41;;;17.81;100.00
62557;BME280;48612;50.742;-1.226;2022-08-19T20:27:37;99530.00;;;17.77;100.00
62557;BME280;48612;50.742;-1.226;2022-08-19T20:30:08;99526.00;;;17.75;100.00
62557;BME280;48612;50.742;-1.226;2022-08-19T20:32:35;99537.00;;;17.73;100.00
62557;BME280;48612;50.742;-1.226;2022-08-19T20:35:02;99545.00;;;17.73;100.00
62557;BME280;48612;50.742;-1.226;2022-08-19T20:37:30;99546.59;;;17.74;100.00
62557;BME280;48612;50.742;-1.226;2022-08-19T20:39:56;99545.78;;;17.74;100.00
62557;BME280;48612;50.742;-1.226;2022-08-19T20:42:21;99540.75;;;17.72;100.00
62557;BME280;48612;50.742;-1.226;2022-08-19T20:44:48;99528.78;;;17.70;100.00
62557;BME280;48612;50.742;-1.226;2022-08-19T20:47:13;99529.38;;;17.67;100.00
62557;BME280;48612;50.742;-1.226;2022-08-19T20:49:39;99536.28;;;17.68;100.00
62557;BME280;48612;50.742;-1.226;2022-08-19T20:52:07;99525.22;;;17.61;100.00
62557;BME280;48612;50.742;-1.226;2022-08-19T20:54:33;99527.09;;;17.60;100.00
62557;BME280;48612;50.742;-1.226;2022-08-19T20:57:02;99540.94;;;17.62;100.00
62557;BME280;48612;50.742;-1.226;2022-08-19T20:59:35;99536.47;;;17.58;100.00
62557;BME280;48612;50.742;-1.226;2022-08-19T21:02:02;99541.59;;;17.54;100.00
62557;BME280;48612;50.742;-1.226;2022-08-19T21:04:29;99542.38;;;17.41;100.00
62557;BME280;48612;50.742;-1.226;2022-08-19T21:06:55;99545.53;;;17.43;100.00
62557;BME280;48612;50.742;-1.226;2022-08-19T21:09:21;99543.25;;;17.36;100.00
62557;BME280;48612;50.742;-1.226;2022-08-19T21:11:51;99539.66;;;17.27;100.00
62557;BME280;48612;50.742;-1.226;2022-08-19T21:14:17;99532.03;;;17.20;100.00
62557;BME280;48612;50.742;-1.226;2022-08-19T21:16:43;99526.31;;;17.27;100.00
62557;BME280;48612;50.742;-1.226;2022-08-19T21:19:13;99504.28;;;17.21;100.00
62557;BME280;48612;50.742;-1.226;2022-08-19T21:21:40;99490.81;;;17.13;100.00
62557;BME280;48612;50.742;-1.226;2022-08-19T21:24:05;99482.00;;;16.98;100.00
62557;BME280;48612;50.742;-1.226;2022-08-19T21:26:35;99493.16;;;17.00;100.00
62557;BME280;48612;50.742;-1.226;2022-08-19T21:29:01;99490.66;;;16.90;100.00
62557;BME280;48612;50.742;-1.226;2022-08-19T21:31:27;99496.28;;;16.89;100.00
62557;BME280;48612;50.742;-1.226;2022-08-19T21:33:52;99494.19;;;16.85;100.00
62557;BME280;48612;50.742;-1.226;2022-08-19T21:36:18;99527.69;;;16.92;100.00
62557;BME280;48612;50.742;-1.226;2022-08-19T21:38:44;99546.94;;;16.89;100.00
62557;BME280;48612;50.742;-1.226;2022-08-19T21:41:10;99547.81;;;16.84;100.00
62557;BME280;48612;50.742;-1.226;2022-08-19T21:43:40;99538.81;;;16.80;100.00
62557;BME280;48612;50.742;-1.226;2022-08-19T21:46:06;99555.84;;;16.79;100.00
62557;BME280;48612;50.742;-1.226;2022-08-19T21:48:34;99571.38;;;16.77;100.00
62557;BME280;48612;50.742;-1.226;2022-08-19T21:50:59;99585.50;;;16.72;100.00
62557;BME280;48612;50.742;-1.226;2022-08-19T21:53:27;99594.38;;;16.68;100.00
62557;BME280;48612;50.742;-1.226;2022-08-19T21:55:52;99588.25;;;16.67;100.00
62557;BME280;48612;50.742;-1.226;2022-08-19T21:58:20;99592.28;;;16.65;100.00
62557;BME280;48612;50.742;-1.226;2022-08-19T22:00:46;99597.47;;;16.56;100.00
62557;BME280;48612;50.742;-1.226;2022-08-19T22:03:12;99602.44;;;16.63;100.00
62557;BME280;48612;50.742;-1.226;2022-08-19T22:05:41;99611.06;;;16.54;100.00
62557;BME280;48612;50.742;-1.226;2022-08-19T22:08:08;99607.59;;;16.54;100.00
62557;BME280;48612;50.742;-1.226;2022-08-19T22:10:35;99583.41;;;16.50;100.00
62557;BME280;48612;50.742;-1.226;2022-08-19T22:13:01;99568.50;;;16.49;100.00
62557;BME280;48612;50.742;-1.226;2022-08-19T22:15:29;99554.97;;;16.46;100.00
62557;BME280;48612;50.742;-1.226;2022-08-19T22:17:57;99536.66;;;16.39;100.00
62557;BME280;48612;50.742;-1.226;2022-08-19T22:20:25;99519.94;;;16.33;100.00
62557;BME280;48612;50.742;-1.226;2022-08-19T22:22:55;99510.09;;;16.34;100.00
62557;BME280;48612;50.742;-1.226;2022-08-19T22:25:25;99498.41;;;16.30;100.00
62557;BME280;48612;50.742;-1.226;2022-08-19T22:27:52;99503.25;;;16.28;100.00
62557;BME280;48612;50.742;-1.226;2022-08-19T22:30:21;99489.19;;;16.22;100.00
62557;BME280;48612;50.742;-1.226;2022-08-19T22:32:52;99489.47;;;16.21;100.00
62557;BME280;48612;50.742;-1.226;2022-08-19T22:35:21;99487.41;;;16.18;100.00
62557;BME280;48612;50.742;-1.226;2022-08-19T22:37:47;99476.00;;;16.12;100.00
62557;BME280;48612;50.742;-1.226;2022-08-19T22:40:14;99467.03;;;16.08;100.00
62557;BME280;48612;50.742;-1.226;2022-08-19T22:42:40;99464.34;;;16.08;100.00
62557;BME280;48612;50.742;-1.226;2022-08-19T22:45:07;99457.00;;;16.00;100.00
62557;BME280;48612;50.742;-1.226;2022-08-19T22:47:34;99445.63;;;15.94;100.00
62557;BME280;48612;50.742;-1.226;2022-08-19T22:50:01;99452.09;;;15.88;100.00
62557;BME280;48612;50.742;-1.226;2022-08-19T22:52:26;99438.59;;;15.79;100.00
62557;BME280;48612;50.742;-1.226;2022-08-19T22:54:54;99444.78;;;15.75;100.00